AFR45LB LFPG-LFBD
Flight info
| Callsign | AFR45LB |
|---|---|
| Flight time | 0h 58m |
| Altitude | 29000 |
| Route | AGOPA DCT ARKIP DCT ARMAL DCT ARTAX DCT BEBIX DCT LMG |
| Aircraft | A320/M-SDE2E3FGIJ1RWY/HB1 |
Departure
| Time | 2026-05-08 20:39 |
|---|---|
| Airport | Charles de Gaulle International Airport (LFPG) |
Arrival
| Time | 2026-05-08 21:37 |
|---|---|
| Airport | Bordeaux–Mérignac Airport (LFBD) |
| Time | Latitude | Longitude | Altitude | Speed | Heading |
|---|---|---|---|---|---|
| 2026-05-08 20:12 | 49.00582 | 2.57352 | 355 ft | 0 kts | 89° |
| 2026-05-08 20:26 | 49.00582 | 2.57320 | 364 ft | 3 kts | 89° |
| 2026-05-08 20:26 | 49.00581 | 2.57284 | 364 ft | 3 kts | 81° |
| 2026-05-08 20:26 | 49.00575 | 2.57254 | 364 ft | 3 kts | 40° |
| 2026-05-08 20:26 | 49.00567 | 2.57247 | 364 ft | 0 kts | 353° |
| 2026-05-08 20:29 | 49.00577 | 2.57245 | 364 ft | 5 kts | 354° |
| 2026-05-08 20:29 | 49.00616 | 2.57240 | 357 ft | 8 kts | 356° |
| 2026-05-08 20:30 | 49.00692 | 2.57231 | 354 ft | 12 kts | 355° |
| 2026-05-08 20:30 | 49.00776 | 2.57219 | 357 ft | 12 kts | 354° |
| 2026-05-08 20:30 | 49.00807 | 2.57215 | 356 ft | 0 kts | 355° |
| 2026-05-08 20:31 | 49.00813 | 2.57214 | 358 ft | 4 kts | 355° |
| 2026-05-08 20:32 | 49.00841 | 2.57202 | 360 ft | 6 kts | 328° |
| 2026-05-08 20:32 | 49.00854 | 2.57106 | 359 ft | 10 kts | 266° |
| 2026-05-08 20:32 | 49.00849 | 2.57002 | 358 ft | 11 kts | 266° |
| 2026-05-08 20:32 | 49.00841 | 2.56863 | 354 ft | 15 kts | 265° |
| 2026-05-08 20:33 | 49.00833 | 2.56700 | 354 ft | 15 kts | 265° |
| 2026-05-08 20:33 | 49.00824 | 2.56550 | 354 ft | 13 kts | 265° |
| 2026-05-08 20:33 | 49.00813 | 2.56403 | 358 ft | 17 kts | 262° |
| 2026-05-08 20:33 | 49.00792 | 2.56201 | 361 ft | 21 kts | 262° |
| 2026-05-08 20:34 | 49.00771 | 2.55971 | 356 ft | 23 kts | 263° |
| 2026-05-08 20:34 | 49.00751 | 2.55726 | 362 ft | 24 kts | 263° |
| 2026-05-08 20:34 | 49.00711 | 2.55341 | 354 ft | 13 kts | 253° |
| 2026-05-08 20:35 | 49.00645 | 2.55245 | 357 ft | 14 kts | 185° |
| 2026-05-08 20:35 | 49.00548 | 2.55287 | 354 ft | 16 kts | 163° |
| 2026-05-08 20:35 | 49.00424 | 2.55339 | 358 ft | 20 kts | 165° |
| 2026-05-08 20:35 | 49.00287 | 2.55398 | 357 ft | 21 kts | 163° |
| 2026-05-08 20:36 | 49.00144 | 2.55463 | 354 ft | 22 kts | 163° |
| 2026-05-08 20:36 | 49.00007 | 2.55517 | 354 ft | 12 kts | 166° |
| 2026-05-08 20:36 | 48.99932 | 2.55560 | 357 ft | 11 kts | 150° |
| 2026-05-08 20:36 | 48.99865 | 2.55637 | 357 ft | 12 kts | 128° |
| 2026-05-08 20:37 | 48.99832 | 2.55753 | 354 ft | 12 kts | 106° |
| 2026-05-08 20:37 | 48.99808 | 2.55883 | 356 ft | 13 kts | 105° |
| 2026-05-08 20:37 | 48.99792 | 2.55984 | 357 ft | 7 kts | 112° |
| 2026-05-08 20:37 | 48.99757 | 2.56027 | 361 ft | 8 kts | 162° |
| 2026-05-08 20:38 | 48.99698 | 2.56035 | 354 ft | 8 kts | 175° |
| 2026-05-08 20:38 | 48.99635 | 2.56043 | 354 ft | 9 kts | 175° |
| 2026-05-08 20:38 | 48.99614 | 2.56112 | 359 ft | 11 kts | 89° |
| 2026-05-08 20:38 | 48.99638 | 2.56548 | 355 ft | 76 kts | 85° |
| 2026-05-08 20:39 | 48.99697 | 2.57664 | 353 ft | 133 kts | 85° |
| 2026-05-08 20:39 | 48.99783 | 2.59283 | 524 ft | 161 kts | 84° |
| 2026-05-08 20:39 | 48.99857 | 2.60986 | 1161 ft | 162 kts | 84° |
| 2026-05-08 20:39 | 48.99929 | 2.62707 | 1811 ft | 165 kts | 86° |
| 2026-05-08 20:40 | 49.00004 | 2.64467 | 2398 ft | 170 kts | 86° |
| 2026-05-08 20:40 | 49.00099 | 2.66277 | 2991 ft | 171 kts | 85° |
| 2026-05-08 20:40 | 49.00205 | 2.68085 | 3581 ft | 173 kts | 85° |
| 2026-05-08 20:40 | 49.00316 | 2.70008 | 3855 ft | 194 kts | 85° |
| 2026-05-08 20:41 | 49.00438 | 2.72170 | 4087 ft | 216 kts | 86° |
| 2026-05-08 20:41 | 49.00569 | 2.74582 | 4352 ft | 241 kts | 86° |
| 2026-05-08 20:41 | 49.00706 | 2.77238 | 4823 ft | 259 kts | 88° |
| 2026-05-08 20:41 | 49.00529 | 2.80004 | 5534 ft | 266 kts | 100° |
| 2026-05-08 20:42 | 49.00233 | 2.82821 | 6316 ft | 273 kts | 100° |
| 2026-05-08 20:42 | 48.99924 | 2.85701 | 7060 ft | 278 kts | 100° |
| 2026-05-08 20:42 | 48.99609 | 2.88632 | 7821 ft | 283 kts | 100° |
| 2026-05-08 20:42 | 48.99289 | 2.91613 | 8580 ft | 288 kts | 100° |
| 2026-05-08 20:43 | 48.98964 | 2.94648 | 9343 ft | 293 kts | 101° |
| 2026-05-08 20:43 | 48.98478 | 2.97666 | 10069 ft | 296 kts | 117° |
| 2026-05-08 20:43 | 48.97301 | 3.00084 | 10712 ft | 295 kts | 142° |
| 2026-05-08 20:43 | 48.95523 | 3.01633 | 11198 ft | 303 kts | 166° |
| 2026-05-08 20:44 | 48.93387 | 3.01899 | 11439 ft | 317 kts | 192° |
| 2026-05-08 20:44 | 48.91330 | 3.00672 | 11981 ft | 322 kts | 216° |
| 2026-05-08 20:44 | 48.89797 | 2.98212 | 12625 ft | 325 kts | 241° |
| 2026-05-08 20:44 | 48.89036 | 2.94973 | 13283 ft | 329 kts | 256° |
| 2026-05-08 20:45 | 48.88497 | 2.91573 | 13963 ft | 333 kts | 257° |
| 2026-05-08 20:45 | 48.88147 | 2.89295 | 14370 ft | 335 kts | 257° |
| 2026-05-08 20:45 | 48.87444 | 2.84659 | 15225 ft | 338 kts | 257° |
| 2026-05-08 20:45 | 48.86901 | 2.81170 | 15870 ft | 341 kts | 254° |
| 2026-05-08 20:46 | 48.85921 | 2.77896 | 16478 ft | 344 kts | 236° |
| 2026-05-08 20:46 | 48.84243 | 2.75290 | 17092 ft | 349 kts | 217° |
| 2026-05-08 20:46 | 48.82223 | 2.73219 | 17713 ft | 352 kts | 215° |
| 2026-05-08 20:46 | 48.80166 | 2.71172 | 18326 ft | 355 kts | 215° |
| 2026-05-08 20:47 | 48.78086 | 2.69126 | 18832 ft | 358 kts | 215° |
| 2026-05-08 20:47 | 48.75983 | 2.67062 | 19297 ft | 362 kts | 215° |
| 2026-05-08 20:47 | 48.73855 | 2.64968 | 19774 ft | 367 kts | 215° |
| 2026-05-08 20:47 | 48.71706 | 2.62846 | 20243 ft | 371 kts | 216° |
| 2026-05-08 20:48 | 48.69532 | 2.60696 | 20692 ft | 375 kts | 215° |
| 2026-05-08 20:48 | 48.67333 | 2.58522 | 21170 ft | 379 kts | 215° |
| 2026-05-08 20:48 | 48.65114 | 2.56324 | 21623 ft | 384 kts | 215° |
| 2026-05-08 20:48 | 48.62871 | 2.54101 | 22081 ft | 388 kts | 215° |
| 2026-05-08 20:49 | 48.60602 | 2.51858 | 22548 ft | 392 kts | 215° |
| 2026-05-08 20:49 | 48.58340 | 2.49628 | 22999 ft | 396 kts | 215° |
| 2026-05-08 20:49 | 48.56809 | 2.48122 | 23298 ft | 398 kts | 214° |
| 2026-05-08 20:49 | 48.54473 | 2.45830 | 23726 ft | 403 kts | 214° |
| 2026-05-08 20:50 | 48.52113 | 2.43514 | 24110 ft | 406 kts | 214° |
| 2026-05-08 20:50 | 48.49740 | 2.41186 | 24500 ft | 408 kts | 215° |
| 2026-05-08 20:50 | 48.47353 | 2.38843 | 24906 ft | 410 kts | 215° |
| 2026-05-08 20:50 | 48.44955 | 2.36494 | 25300 ft | 412 kts | 215° |
| 2026-05-08 20:51 | 48.42542 | 2.34134 | 25695 ft | 414 kts | 215° |
| 2026-05-08 20:51 | 48.40121 | 2.31768 | 25981 ft | 416 kts | 214° |
| 2026-05-08 20:51 | 48.37696 | 2.29402 | 26045 ft | 415 kts | 214° |
| 2026-05-08 20:51 | 48.35275 | 2.27044 | 26046 ft | 414 kts | 214° |
| 2026-05-08 20:52 | 48.32846 | 2.24684 | 26319 ft | 417 kts | 214° |
| 2026-05-08 20:52 | 48.30403 | 2.22315 | 26706 ft | 419 kts | 214° |
| 2026-05-08 20:52 | 48.27950 | 2.19933 | 27075 ft | 421 kts | 214° |
| 2026-05-08 20:52 | 48.25486 | 2.17539 | 27431 ft | 423 kts | 214° |
| 2026-05-08 20:53 | 48.23011 | 2.15138 | 27783 ft | 425 kts | 214° |
| 2026-05-08 20:53 | 48.20523 | 2.12727 | 28141 ft | 426 kts | 214° |
| 2026-05-08 20:53 | 48.18031 | 2.10316 | 28522 ft | 427 kts | 214° |
| 2026-05-08 20:53 | 48.15529 | 2.07903 | 28870 ft | 428 kts | 214° |
| 2026-05-08 20:54 | 48.13017 | 2.05490 | 29027 ft | 427 kts | 213° |
| 2026-05-08 20:54 | 48.07689 | 2.01959 | 29051 ft | 419 kts | 194° |
| 2026-05-08 20:55 | 48.01891 | 2.01372 | 29053 ft | 420 kts | 178° |
| 2026-05-08 20:55 | 47.96060 | 2.01730 | 29047 ft | 419 kts | 178° |
| 2026-05-08 20:56 | 47.90240 | 2.02063 | 29056 ft | 418 kts | 179° |
| 2026-05-08 20:56 | 47.84420 | 2.02409 | 29053 ft | 418 kts | 179° |
| 2026-05-08 20:57 | 47.78643 | 2.02738 | 29030 ft | 418 kts | 179° |
| 2026-05-08 20:57 | 47.72833 | 2.03075 | 29035 ft | 417 kts | 178° |
| 2026-05-08 20:58 | 47.67041 | 2.03407 | 29038 ft | 416 kts | 178° |
| 2026-05-08 20:58 | 47.61259 | 2.03749 | 29021 ft | 416 kts | 178° |
| 2026-05-08 20:59 | 47.55486 | 2.04084 | 29020 ft | 415 kts | 178° |
| 2026-05-08 20:59 | 47.49729 | 2.04413 | 29029 ft | 413 kts | 178° |
| 2026-05-08 21:00 | 47.43986 | 2.04732 | 29029 ft | 412 kts | 178° |
| 2026-05-08 21:00 | 47.38260 | 2.05055 | 29026 ft | 411 kts | 178° |
| 2026-05-08 21:01 | 47.32551 | 2.04910 | 29027 ft | 411 kts | 188° |
| 2026-05-08 21:01 | 47.26927 | 2.03487 | 29026 ft | 410 kts | 189° |
| 2026-05-08 21:02 | 47.21313 | 2.02065 | 29019 ft | 409 kts | 189° |
| 2026-05-08 21:02 | 47.15704 | 2.00644 | 29007 ft | 409 kts | 189° |
| 2026-05-08 21:03 | 47.10107 | 1.99230 | 29009 ft | 408 kts | 188° |
| 2026-05-08 21:03 | 47.04517 | 1.97824 | 29012 ft | 407 kts | 188° |
| 2026-05-08 21:04 | 46.98935 | 1.96424 | 29009 ft | 407 kts | 188° |
| 2026-05-08 21:04 | 46.93450 | 1.94447 | 29000 ft | 408 kts | 199° |
| 2026-05-08 21:05 | 46.88154 | 1.91477 | 29001 ft | 408 kts | 199° |
| 2026-05-08 21:05 | 46.82858 | 1.88499 | 28995 ft | 408 kts | 199° |
| 2026-05-08 21:06 | 46.77567 | 1.85524 | 28988 ft | 408 kts | 199° |
| 2026-05-08 21:06 | 46.72274 | 1.82562 | 28985 ft | 407 kts | 199° |
| 2026-05-08 21:07 | 46.66979 | 1.79606 | 28991 ft | 407 kts | 199° |
| 2026-05-08 21:07 | 46.61686 | 1.76660 | 28998 ft | 407 kts | 199° |
| 2026-05-08 21:08 | 46.56391 | 1.73718 | 28996 ft | 407 kts | 199° |
| 2026-05-08 21:08 | 46.51101 | 1.70782 | 28983 ft | 407 kts | 199° |
| 2026-05-08 21:09 | 46.45817 | 1.67851 | 28990 ft | 406 kts | 199° |
| 2026-05-08 21:09 | 46.40538 | 1.64929 | 28989 ft | 406 kts | 199° |
| 2026-05-08 21:10 | 46.35266 | 1.62016 | 28990 ft | 405 kts | 198° |
| 2026-05-08 21:10 | 46.29996 | 1.59124 | 29013 ft | 404 kts | 198° |
| 2026-05-08 21:11 | 46.24740 | 1.56243 | 29003 ft | 403 kts | 198° |
| 2026-05-08 21:11 | 46.19494 | 1.53367 | 28996 ft | 403 kts | 198° |
| 2026-05-08 21:12 | 46.14255 | 1.50505 | 29005 ft | 402 kts | 198° |
| 2026-05-08 21:12 | 46.09027 | 1.47652 | 28999 ft | 401 kts | 198° |
| 2026-05-08 21:13 | 46.03813 | 1.44799 | 29002 ft | 401 kts | 198° |
| 2026-05-08 21:13 | 45.98634 | 1.41832 | 28996 ft | 403 kts | 205° |
| 2026-05-08 21:13 | 45.96273 | 1.39640 | 28990 ft | 407 kts | 216° |
| 2026-05-08 21:14 | 45.94236 | 1.36799 | 28999 ft | 411 kts | 227° |
| 2026-05-08 21:14 | 45.92604 | 1.33414 | 28997 ft | 415 kts | 238° |
| 2026-05-08 21:14 | 45.91282 | 1.29724 | 28996 ft | 416 kts | 239° |
| 2026-05-08 21:15 | 45.88655 | 1.22326 | 28991 ft | 416 kts | 239° |
| 2026-05-08 21:15 | 45.86021 | 1.14941 | 29001 ft | 416 kts | 239° |
| 2026-05-08 21:16 | 45.83385 | 1.07567 | 28804 ft | 411 kts | 239° |
| 2026-05-08 21:16 | 45.82092 | 1.03956 | 28528 ft | 403 kts | 238° |
| 2026-05-08 21:16 | 45.80633 | 1.00645 | 28261 ft | 395 kts | 230° |
| 2026-05-08 21:16 | 45.78997 | 0.97437 | 27987 ft | 393 kts | 230° |
| 2026-05-08 21:17 | 45.77386 | 0.94291 | 27720 ft | 390 kts | 230° |
| 2026-05-08 21:17 | 45.75776 | 0.91173 | 27359 ft | 389 kts | 230° |
| 2026-05-08 21:17 | 45.74176 | 0.88091 | 26335 ft | 391 kts | 230° |
| 2026-05-08 21:17 | 45.72553 | 0.84972 | 25307 ft | 390 kts | 231° |
| 2026-05-08 21:18 | 45.70911 | 0.81820 | 24303 ft | 389 kts | 231° |
| 2026-05-08 21:18 | 45.69300 | 0.78729 | 23392 ft | 385 kts | 231° |
| 2026-05-08 21:18 | 45.67721 | 0.75699 | 22650 ft | 374 kts | 231° |
| 2026-05-08 21:18 | 45.66214 | 0.72803 | 22358 ft | 353 kts | 231° |
| 2026-05-08 21:19 | 45.64776 | 0.70050 | 21947 ft | 342 kts | 231° |
| 2026-05-08 21:19 | 45.63355 | 0.67340 | 21524 ft | 340 kts | 231° |
| 2026-05-08 21:19 | 45.61942 | 0.64648 | 21104 ft | 337 kts | 231° |
| 2026-05-08 21:19 | 45.60538 | 0.61974 | 20683 ft | 335 kts | 231° |
| 2026-05-08 21:20 | 45.59143 | 0.59318 | 20271 ft | 333 kts | 231° |
| 2026-05-08 21:20 | 45.57757 | 0.56676 | 19859 ft | 332 kts | 231° |
| 2026-05-08 21:20 | 45.56379 | 0.54049 | 19450 ft | 330 kts | 231° |
| 2026-05-08 21:20 | 45.55006 | 0.51432 | 19045 ft | 329 kts | 231° |
| 2026-05-08 21:21 | 45.53638 | 0.48830 | 18648 ft | 327 kts | 231° |
| 2026-05-08 21:21 | 45.52274 | 0.46237 | 18243 ft | 326 kts | 231° |
| 2026-05-08 21:21 | 45.50916 | 0.43656 | 17807 ft | 325 kts | 231° |
| 2026-05-08 21:21 | 45.49567 | 0.41094 | 17414 ft | 322 kts | 231° |
| 2026-05-08 21:22 | 45.48243 | 0.38585 | 17039 ft | 320 kts | 231° |
| 2026-05-08 21:22 | 45.46908 | 0.36067 | 16651 ft | 318 kts | 231° |
| 2026-05-08 21:22 | 45.45580 | 0.33568 | 16268 ft | 316 kts | 231° |
| 2026-05-08 21:22 | 45.44259 | 0.31078 | 15897 ft | 314 kts | 231° |
| 2026-05-08 21:23 | 45.42946 | 0.28605 | 15520 ft | 313 kts | 231° |
| 2026-05-08 21:23 | 45.41638 | 0.26142 | 15147 ft | 311 kts | 231° |
| 2026-05-08 21:23 | 45.40336 | 0.23691 | 14780 ft | 310 kts | 231° |
| 2026-05-08 21:23 | 45.39038 | 0.21249 | 14405 ft | 309 kts | 231° |
| 2026-05-08 21:24 | 45.37744 | 0.18813 | 14042 ft | 308 kts | 231° |
| 2026-05-08 21:24 | 45.36452 | 0.16383 | 13672 ft | 308 kts | 231° |
| 2026-05-08 21:24 | 45.35165 | 0.13959 | 13279 ft | 306 kts | 231° |
| 2026-05-08 21:24 | 45.33886 | 0.11554 | 12894 ft | 304 kts | 231° |
| 2026-05-08 21:25 | 45.32615 | 0.09166 | 12519 ft | 302 kts | 231° |
| 2026-05-08 21:25 | 45.31351 | 0.06797 | 12150 ft | 300 kts | 231° |
| 2026-05-08 21:25 | 45.30092 | 0.04441 | 11779 ft | 298 kts | 231° |
| 2026-05-08 21:25 | 45.28851 | 0.02120 | 11552 ft | 292 kts | 231° |
| 2026-05-08 21:26 | 45.27618 | -0.00179 | 11159 ft | 292 kts | 230° |
| 2026-05-08 21:26 | 45.26396 | -0.02456 | 10786 ft | 291 kts | 230° |
| 2026-05-08 21:26 | 45.25180 | -0.04718 | 10525 ft | 286 kts | 230° |
| 2026-05-08 21:26 | 45.23976 | -0.06955 | 10149 ft | 285 kts | 230° |
| 2026-05-08 21:27 | 45.22774 | -0.09185 | 9782 ft | 284 kts | 230° |
| 2026-05-08 21:27 | 45.21579 | -0.11407 | 9380 ft | 283 kts | 230° |
| 2026-05-08 21:27 | 45.20390 | -0.13622 | 8986 ft | 281 kts | 231° |
| 2026-05-08 21:27 | 45.19208 | -0.15823 | 8585 ft | 280 kts | 231° |
| 2026-05-08 21:28 | 45.18043 | -0.17991 | 8036 ft | 272 kts | 231° |
| 2026-05-08 21:28 | 45.16904 | -0.20107 | 7624 ft | 270 kts | 231° |
| 2026-05-08 21:28 | 45.15763 | -0.22218 | 7225 ft | 269 kts | 231° |
| 2026-05-08 21:28 | 45.14628 | -0.24318 | 6836 ft | 268 kts | 231° |
| 2026-05-08 21:29 | 45.13494 | -0.26414 | 6434 ft | 268 kts | 231° |
| 2026-05-08 21:29 | 45.12365 | -0.28504 | 6019 ft | 267 kts | 231° |
| 2026-05-08 21:29 | 45.11239 | -0.30585 | 5604 ft | 266 kts | 231° |
| 2026-05-08 21:29 | 45.10114 | -0.32656 | 5211 ft | 265 kts | 231° |
| 2026-05-08 21:30 | 45.08902 | -0.34614 | 4950 ft | 264 kts | 223° |
| 2026-05-08 21:30 | 45.07590 | -0.36435 | 4703 ft | 264 kts | 223° |
| 2026-05-08 21:30 | 45.06220 | -0.38163 | 4448 ft | 263 kts | 219° |
| 2026-05-08 21:30 | 45.04880 | -0.39884 | 4191 ft | 257 kts | 223° |
| 2026-05-08 21:31 | 45.03652 | -0.41642 | 4041 ft | 245 kts | 224° |
| 2026-05-08 21:31 | 45.02494 | -0.43329 | 3915 ft | 233 kts | 224° |
| 2026-05-08 21:31 | 45.01383 | -0.44937 | 3790 ft | 224 kts | 223° |
| 2026-05-08 21:31 | 45.00317 | -0.46475 | 3660 ft | 214 kts | 223° |
| 2026-05-08 21:32 | 44.99296 | -0.47948 | 3547 ft | 206 kts | 223° |
| 2026-05-08 21:32 | 44.98315 | -0.49360 | 3423 ft | 203 kts | 223° |
| 2026-05-08 21:32 | 44.97327 | -0.50783 | 3307 ft | 203 kts | 223° |
| 2026-05-08 21:32 | 44.96341 | -0.52203 | 3183 ft | 202 kts | 223° |
| 2026-05-08 21:33 | 44.95360 | -0.53615 | 3104 ft | 197 kts | 223° |
| 2026-05-08 21:33 | 44.94438 | -0.54942 | 3021 ft | 183 kts | 223° |
| 2026-05-08 21:33 | 44.93563 | -0.56200 | 2831 ft | 177 kts | 223° |
| 2026-05-08 21:33 | 44.92716 | -0.57417 | 2616 ft | 170 kts | 222° |
| 2026-05-08 21:34 | 44.91913 | -0.58572 | 2431 ft | 157 kts | 222° |
| 2026-05-08 21:34 | 44.91164 | -0.59648 | 2216 ft | 151 kts | 222° |
| 2026-05-08 21:34 | 44.90435 | -0.60692 | 2015 ft | 149 kts | 221° |
| 2026-05-08 21:34 | 44.89713 | -0.61728 | 1817 ft | 147 kts | 221° |
| 2026-05-08 21:35 | 44.89228 | -0.62423 | 1693 ft | 147 kts | 221° |
| 2026-05-08 21:35 | 44.88520 | -0.63437 | 1491 ft | 147 kts | 222° |
| 2026-05-08 21:35 | 44.87802 | -0.64465 | 1291 ft | 147 kts | 222° |
| 2026-05-08 21:35 | 44.87088 | -0.65498 | 1122 ft | 147 kts | 223° |
| 2026-05-08 21:36 | 44.86373 | -0.66524 | 909 ft | 147 kts | 223° |
| 2026-05-08 21:36 | 44.85661 | -0.67539 | 684 ft | 145 kts | 224° |
| 2026-05-08 21:36 | 44.84956 | -0.68547 | 473 ft | 144 kts | 225° |
| 2026-05-08 21:36 | 44.84261 | -0.69548 | 299 ft | 141 kts | 226° |
| 2026-05-08 21:37 | 44.83576 | -0.70519 | 171 ft | 133 kts | 227° |
| 2026-05-08 21:37 | 44.83021 | -0.71316 | 170 ft | 91 kts | 225° |
| 2026-05-08 21:37 | 44.82706 | -0.71768 | 173 ft | 40 kts | 225° |
| 2026-05-08 21:37 | 44.82573 | -0.71929 | 172 ft | 18 kts | 189° |
| 2026-05-08 21:38 | 44.82482 | -0.71818 | 171 ft | 18 kts | 126° |
| 2026-05-08 21:38 | 44.82441 | -0.71718 | 171 ft | 11 kts | 107° |
| 2026-05-08 21:38 | 44.82473 | -0.71639 | 171 ft | 9 kts | 49° |
| 2026-05-08 21:38 | 44.82524 | -0.71569 | 171 ft | 13 kts | 44° |
| 2026-05-08 21:39 | 44.82600 | -0.71457 | 171 ft | 17 kts | 46° |
| 2026-05-08 21:39 | 44.82678 | -0.71348 | 171 ft | 15 kts | 45° |
| 2026-05-08 21:39 | 44.82749 | -0.71249 | 169 ft | 14 kts | 45° |
| 2026-05-08 21:39 | 44.82815 | -0.71152 | 169 ft | 13 kts | 43° |
| 2026-05-08 21:40 | 44.82872 | -0.71075 | 170 ft | 10 kts | 45° |
| 2026-05-08 21:40 | 44.82919 | -0.71006 | 170 ft | 9 kts | 46° |
| 2026-05-08 21:40 | 44.82947 | -0.70943 | 170 ft | 6 kts | 107° |
| 2026-05-08 21:41 | 44.82922 | -0.70851 | 171 ft | 4 kts | 109° |
| 2026-05-08 21:41 | 44.82909 | -0.70790 | 171 ft | 13 kts | 106° |
| 2026-05-08 21:41 | 44.82880 | -0.70656 | 171 ft | 16 kts | 106° |
| 2026-05-08 21:41 | 44.82859 | -0.70513 | 172 ft | 13 kts | 80° |
| 2026-05-08 21:42 | 44.82902 | -0.70425 | 172 ft | 8 kts | 72° |
| 2026-05-08 21:42 | 44.82882 | -0.70366 | 172 ft | 6 kts | 115° |
| 2026-05-08 21:42 | 44.82890 | -0.70312 | 172 ft | 7 kts | 47° |
| 2026-05-08 21:42 | 44.82927 | -0.70280 | 172 ft | 4 kts | 30° |
| 2026-05-08 21:43 | 44.82950 | -0.70261 | 172 ft | 4 kts | 30° |
| 2026-05-08 21:43 | 44.82968 | -0.70247 | 171 ft | 0 kts | 30° |